sensor_id;sensor_type;location;lat;lon;timestamp;pressure;altitude;pressure_sealevel;temperature;humidity
77013;BME280;67260;53.130;17.982;2023-04-25T00:00:05;99878.98;;;10.97;84.72
77013;BME280;67260;53.130;17.982;2023-04-25T00:02:58;99881.74;;;10.92;84.79
77013;BME280;67260;53.130;17.982;2023-04-25T00:05:26;99881.46;;;10.90;84.84
77013;BME280;67260;53.130;17.982;2023-04-25T00:07:52;99879.85;;;10.89;85.06
77013;BME280;67260;53.130;17.982;2023-04-25T00:10:20;99873.88;;;10.88;84.69
77013;BME280;67260;53.130;17.982;2023-04-25T00:12:46;99872.25;;;10.91;84.49
77013;BME280;67260;53.130;17.982;2023-04-25T00:15:13;99872.76;;;10.92;83.95
77013;BME280;67260;53.130;17.982;2023-04-25T00:17:39;99877.22;;;10.92;83.85
77013;BME280;67260;53.130;17.982;2023-04-25T00:20:06;99875.17;;;10.89;83.34
77013;BME280;67260;53.130;17.982;2023-04-25T00:22:35;99875.41;;;10.85;83.35
77013;BME280;67260;53.130;17.982;2023-04-25T00:25:06;99873.14;;;10.81;83.06
77013;BME280;67260;53.130;17.982;2023-04-25T00:27:32;99878.88;;;10.79;82.89
77013;BME280;67260;53.130;17.982;2023-04-25T00:29:59;99879.39;;;10.78;82.82
77013;BME280;67260;53.130;17.982;2023-04-25T00:32:26;99877.47;;;10.76;82.34
77013;BME280;67260;53.130;17.982;2023-04-25T00:34:52;99882.75;;;10.73;82.27
77013;BME280;67260;53.130;17.982;2023-04-25T00:37:17;99885.23;;;10.71;82.17
77013;BME280;67260;53.130;17.982;2023-04-25T00:39:44;99890.88;;;10.70;81.77
77013;BME280;67260;53.130;17.982;2023-04-25T00:42:10;99892.70;;;10.67;81.78
77013;BME280;67260;53.130;17.982;2023-04-25T00:44:38;99897.20;;;10.63;81.35
77013;BME280;67260;53.130;17.982;2023-04-25T00:47:04;99901.20;;;10.55;80.88
77013;BME280;67260;53.130;17.982;2023-04-25T00:49:30;99900.80;;;10.47;80.87
77013;BME280;67260;53.130;17.982;2023-04-25T00:51:56;99901.05;;;10.45;80.98
77013;BME280;67260;53.130;17.982;2023-04-25T00:54:23;99908.36;;;10.42;80.40
77013;BME280;67260;53.130;17.982;2023-04-25T00:56:50;99907.73;;;10.37;80.57
77013;BME280;67260;53.130;17.982;2023-04-25T00:59:16;99906.05;;;10.34;80.53
77013;BME280;67260;53.130;17.982;2023-04-25T01:01:43;99910.47;;;10.30;80.60
77013;BME280;67260;53.130;17.982;2023-04-25T01:04:09;99907.10;;;10.26;80.37
77013;BME280;67260;53.130;17.982;2023-04-25T01:06:36;99908.81;;;10.19;80.69
77013;BME280;67260;53.130;17.982;2023-04-25T01:09:03;99908.94;;;10.14;81.04
77013;BME280;67260;53.130;17.982;2023-04-25T01:11:30;99906.34;;;10.12;81.02
77013;BME280;67260;53.130;17.982;2023-04-25T01:13:56;99907.96;;;10.13;81.21
77013;BME280;67260;53.130;17.982;2023-04-25T01:16:23;99910.19;;;10.12;80.93
77013;BME280;67260;53.130;17.982;2023-04-25T01:18:52;99906.92;;;10.08;80.94
77013;BME280;67260;53.130;17.982;2023-04-25T01:21:18;99909.86;;;10.05;80.82
77013;BME280;67260;53.130;17.982;2023-04-25T01:23:46;99911.10;;;10.04;81.13
77013;BME280;67260;53.130;17.982;2023-04-25T01:26:13;99909.75;;;10.04;80.67
77013;BME280;67260;53.130;17.982;2023-04-25T01:28:39;99911.61;;;10.02;80.29
77013;BME280;67260;53.130;17.982;2023-04-25T01:31:11;99914.94;;;9.97;80.13
77013;BME280;67260;53.130;17.982;2023-04-25T01:33:38;99916.95;;;9.93;80.18
77013;BME280;67260;53.130;17.982;2023-04-25T01:36:04;99914.48;;;9.91;80.49
77013;BME280;67260;53.130;17.982;2023-04-25T01:38:31;99917.34;;;9.91;80.44
77013;BME280;67260;53.130;17.982;2023-04-25T01:40:57;99917.95;;;9.91;80.55
77013;BME280;67260;53.130;17.982;2023-04-25T01:43:24;99920.20;;;9.91;80.67
77013;BME280;67260;53.130;17.982;2023-04-25T01:45:50;99923.37;;;9.92;80.62
77013;BME280;67260;53.130;17.982;2023-04-25T01:48:16;99923.70;;;9.88;80.13
77013;BME280;67260;53.130;17.982;2023-04-25T01:50:43;99927.20;;;9.81;80.01
77013;BME280;67260;53.130;17.982;2023-04-25T01:53:12;99929.85;;;9.74;80.17
77013;BME280;67260;53.130;17.982;2023-04-25T01:55:39;99931.70;;;9.72;80.62
77013;BME280;67260;53.130;17.982;2023-04-25T01:58:08;99931.27;;;9.71;80.43
77013;BME280;67260;53.130;17.982;2023-04-25T02:00:55;99934.39;;;9.72;80.72
77013;BME280;67260;53.130;17.982;2023-04-25T02:03:23;99934.08;;;9.72;80.48
77013;BME280;67260;53.130;17.982;2023-04-25T02:05:51;99932.95;;;9.69;80.56
77013;BME280;67260;53.130;17.982;2023-04-25T02:08:18;99937.75;;;9.67;80.68
77013;BME280;67260;53.130;17.982;2023-04-25T02:10:44;99938.41;;;9.59;80.44
77013;BME280;67260;53.130;17.982;2023-04-25T02:13:18;99940.39;;;9.51;80.42
77013;BME280;67260;53.130;17.982;2023-04-25T02:16:13;99941.27;;;9.46;80.56
77013;BME280;67260;53.130;17.982;2023-04-25T02:18:39;99943.89;;;9.40;80.82
77013;BME280;67260;53.130;17.982;2023-04-25T02:21:08;99946.40;;;9.35;80.69
77013;BME280;67260;53.130;17.982;2023-04-25T02:23:34;99946.82;;;9.25;80.55
77013;BME280;67260;53.130;17.982;2023-04-25T02:26:01;99949.01;;;9.16;80.80
77013;BME280;67260;53.130;17.982;2023-04-25T02:28:38;99944.05;;;9.14;80.78
77013;BME280;67260;53.130;17.982;2023-04-25T02:31:04;99947.02;;;9.16;80.89
77013;BME280;67260;53.130;17.982;2023-04-25T02:33:47;99951.09;;;9.15;80.53
77013;BME280;67260;53.130;17.982;2023-04-25T02:36:15;99950.02;;;9.11;80.71
77013;BME280;67260;53.130;17.982;2023-04-25T02:39:03;99949.00;;;9.06;80.66
77013;BME280;67260;53.130;17.982;2023-04-25T02:41:30;99950.44;;;8.99;80.35
77013;BME280;67260;53.130;17.982;2023-04-25T02:43:57;99953.93;;;8.96;80.42
77013;BME280;67260;53.130;17.982;2023-04-25T02:46:23;99952.27;;;8.92;80.30
77013;BME280;67260;53.130;17.982;2023-04-25T02:48:49;99949.10;;;8.89;80.31
77013;BME280;67260;53.130;17.982;2023-04-25T02:51:15;99951.98;;;8.83;80.26
77013;BME280;67260;53.130;17.982;2023-04-25T02:53:42;99953.88;;;8.79;80.26
77013;BME280;67260;53.130;17.982;2023-04-25T02:56:08;99955.37;;;8.75;80.15
77013;BME280;67260;53.130;17.982;2023-04-25T02:58:35;99959.45;;;8.74;79.79
77013;BME280;67260;53.130;17.982;2023-04-25T03:01:01;99955.73;;;8.70;80.00
77013;BME280;67260;53.130;17.982;2023-04-25T03:03:27;99957.71;;;8.66;80.01
77013;BME280;67260;53.130;17.982;2023-04-25T03:05:53;99961.33;;;8.61;79.93
77013;BME280;67260;53.130;17.982;2023-04-25T03:08:26;99960.27;;;8.54;80.03
77013;BME280;67260;53.130;17.982;2023-04-25T03:10:59;99959.34;;;8.50;79.94
77013;BME280;67260;53.130;17.982;2023-04-25T03:13:25;99960.63;;;8.45;80.09
77013;BME280;67260;53.130;17.982;2023-04-25T03:15:53;99956.90;;;8.43;80.15
77013;BME280;67260;53.130;17.982;2023-04-25T03:18:19;99954.36;;;8.37;80.02
77013;BME280;67260;53.130;17.982;2023-04-25T03:20:45;99954.54;;;8.33;80.10
77013;BME280;67260;53.130;17.982;2023-04-25T03:23:12;99955.30;;;8.26;79.85
77013;BME280;67260;53.130;17.982;2023-04-25T03:25:41;99955.65;;;8.20;79.91
77013;BME280;67260;53.130;17.982;2023-04-25T03:28:07;99957.05;;;8.15;79.95
77013;BME280;67260;53.130;17.982;2023-04-25T03:30:34;99959.30;;;8.10;80.00
77013;BME280;67260;53.130;17.982;2023-04-25T03:33:00;99959.64;;;8.07;80.01
77013;BME280;67260;53.130;17.982;2023-04-25T03:35:26;99959.16;;;8.07;80.17
77013;BME280;67260;53.130;17.982;2023-04-25T03:37:53;99961.80;;;8.06;80.02
77013;BME280;67260;53.130;17.982;2023-04-25T03:40:25;99966.98;;;8.05;80.12
77013;BME280;67260;53.130;17.982;2023-04-25T03:43:24;99967.27;;;8.04;79.95
77013;BME280;67260;53.130;17.982;2023-04-25T03:46:01;99969.59;;;8.03;80.08
77013;BME280;67260;53.130;17.982;2023-04-25T03:48:27;99975.52;;;8.02;79.80
77013;BME280;67260;53.130;17.982;2023-04-25T03:50:54;99975.41;;;8.00;79.94
77013;BME280;67260;53.130;17.982;2023-04-25T03:53:21;99980.30;;;8.01;79.64
77013;BME280;67260;53.130;17.982;2023-04-25T03:56:07;99984.36;;;8.02;79.46
77013;BME280;67260;53.130;17.982;2023-04-25T03:58:35;99986.93;;;8.01;79.61
77013;BME280;67260;53.130;17.982;2023-04-25T04:01:01;99989.95;;;7.99;79.44
77013;BME280;67260;53.130;17.982;2023-04-25T04:03:34;99991.65;;;7.99;79.42
77013;BME280;67260;53.130;17.982;2023-04-25T04:06:05;99996.70;;;7.98;79.01
77013;BME280;67260;53.130;17.982;2023-04-25T04:08:35;99996.69;;;8.02;79.25
77013;BME280;67260;53.130;17.982;2023-04-25T04:11:01;99994.31;;;8.10;79.12
77013;BME280;67260;53.130;17.982;2023-04-25T04:13:28;100002.63;;;8.19;79.17
77013;BME280;67260;53.130;17.982;2023-04-25T04:15:55;100000.73;;;8.24;78.47
77013;BME280;67260;53.130;17.982;2023-04-25T04:18:22;100004.67;;;8.26;78.43
77013;BME280;67260;53.130;17.982;2023-04-25T04:20:48;100012.92;;;8.30;78.69
77013;BME280;67260;53.130;17.982;2023-04-25T04:23:14;100015.67;;;8.35;78.25
77013;BME280;67260;53.130;17.982;2023-04-25T04:25:43;100014.86;;;8.36;77.62
77013;BME280;67260;53.130;17.982;2023-04-25T04:28:28;100014.79;;;8.34;77.65
77013;BME280;67260;53.130;17.982;2023-04-25T04:30:59;100020.23;;;8.39;77.98
77013;BME280;67260;53.130;17.982;2023-04-25T04:33:27;100022.60;;;8.45;77.26
77013;BME280;67260;53.130;17.982;2023-04-25T04:35:59;100028.79;;;8.46;77.56
77013;BME280;67260;53.130;17.982;2023-04-25T04:38:27;100030.12;;;8.50;77.23
77013;BME280;67260;53.130;17.982;2023-04-25T04:40:56;100026.65;;;8.52;77.25
77013;BME280;67260;53.130;17.982;2023-04-25T04:43:55;100030.36;;;8.51;76.61
77013;BME280;67260;53.130;17.982;2023-04-25T04:46:35;100028.70;;;8.48;77.12
77013;BME280;67260;53.130;17.982;2023-04-25T04:49:12;100028.88;;;8.53;76.93
77013;BME280;67260;53.130;17.982;2023-04-25T04:51:47;100025.40;;;8.58;77.16
77013;BME280;67260;53.130;17.982;2023-04-25T04:54:37;100028.48;;;8.61;76.62
77013;BME280;67260;53.130;17.982;2023-04-25T04:57:27;100029.33;;;8.64;76.72
77013;BME280;67260;53.130;17.982;2023-04-25T05:00:33;100031.89;;;8.65;76.35
77013;BME280;67260;53.130;17.982;2023-04-25T05:03:26;100039.23;;;8.62;76.36
77013;BME280;67260;53.130;17.982;2023-04-25T05:06:13;100040.50;;;8.61;76.50
77013;BME280;67260;53.130;17.982;2023-04-25T05:09:01;100041.11;;;8.62;76.10
77013;BME280;67260;53.130;17.982;2023-04-25T05:11:49;100040.38;;;8.61;76.59
77013;BME280;67260;53.130;17.982;2023-04-25T05:14:37;100040.65;;;8.65;76.27
77013;BME280;67260;53.130;17.982;2023-04-25T05:17:29;100037.58;;;8.56;75.61
77013;BME280;67260;53.130;17.982;2023-04-25T05:20:15;100039.80;;;8.50;76.06
77013;BME280;67260;53.130;17.982;2023-04-25T05:23:02;100044.30;;;8.50;76.19
77013;BME280;67260;53.130;17.982;2023-04-25T05:25:42;100043.52;;;8.58;75.98
77013;BME280;67260;53.130;17.982;2023-04-25T05:28:30;100043.77;;;8.68;75.14
77013;BME280;67260;53.130;17.982;2023-04-25T05:31:12;100039.91;;;8.74;74.88
77013;BME280;67260;53.130;17.982;2023-04-25T05:33:47;100043.80;;;8.87;75.22
77013;BME280;67260;53.130;17.982;2023-04-25T05:36:13;100042.16;;;9.02;74.85
77013;BME280;67260;53.130;17.982;2023-04-25T05:38:55;100044.04;;;9.22;74.17
77013;BME280;67260;53.130;17.982;2023-04-25T05:41:23;100047.28;;;9.45;73.97
77013;BME280;67260;53.130;17.982;2023-04-25T05:44:30;100050.95;;;9.75;73.61
77013;BME280;67260;53.130;17.982;2023-04-25T05:47:15;100049.23;;;10.12;72.98
77013;BME280;67260;53.130;17.982;2023-04-25T05:49:57;100048.90;;;10.58;72.30
77013;BME280;67260;53.130;17.982;2023-04-25T05:52:39;100045.48;;;10.98;71.27
77013;BME280;67260;53.130;17.982;2023-04-25T05:55:24;100049.94;;;11.35;70.36
77013;BME280;67260;53.130;17.982;2023-04-25T05:57:54;100051.03;;;12.19;68.85
77013;BME280;67260;53.130;17.982;2023-04-25T06:00:21;100051.52;;;13.10;66.97
77013;BME280;67260;53.130;17.982;2023-04-25T06:02:48;100051.63;;;13.24;65.52
77013;BME280;67260;53.130;17.982;2023-04-25T06:05:14;100050.69;;;13.12;65.71
77013;BME280;67260;53.130;17.982;2023-04-25T06:07:40;100048.73;;;13.12;65.83
77013;BME280;67260;53.130;17.982;2023-04-25T06:10:07;100048.94;;;13.29;64.92
77013;BME280;67260;53.130;17.982;2023-04-25T06:12:33;100047.33;;;13.51;64.58
77013;BME280;67260;53.130;17.982;2023-04-25T06:15:00;100048.40;;;13.94;63.80
77013;BME280;67260;53.130;17.982;2023-04-25T06:17:26;100049.89;;;14.51;61.99
77013;BME280;67260;53.130;17.982;2023-04-25T06:19:52;100051.10;;;15.21;61.05
77013;BME280;67260;53.130;17.982;2023-04-25T06:22:18;100049.75;;;16.54;58.05
77013;BME280;67260;53.130;17.982;2023-04-25T06:24:44;100049.10;;;17.71;56.93
77013;BME280;67260;53.130;17.982;2023-04-25T06:27:11;100050.42;;;18.75;54.52
77013;BME280;67260;53.130;17.982;2023-04-25T06:29:38;100051.52;;;19.60;53.12
77013;BME280;67260;53.130;17.982;2023-04-25T06:32:04;100046.61;;;20.95;51.23
77013;BME280;67260;53.130;17.982;2023-04-25T06:34:30;100050.80;;;22.27;48.90
77013;BME280;67260;53.130;17.982;2023-04-25T06:36:56;100046.15;;;23.68;46.38
77013;BME280;67260;53.130;17.982;2023-04-25T06:39:23;100042.62;;;24.96;45.13
77013;BME280;67260;53.130;17.982;2023-04-25T06:41:50;100038.94;;;25.89;43.53
77013;BME280;67260;53.130;17.982;2023-04-25T06:44:49;100036.09;;;26.90;41.80
77013;BME280;67260;53.130;17.982;2023-04-25T06:47:15;100031.89;;;27.43;39.53
77013;BME280;67260;53.130;17.982;2023-04-25T06:49:41;100032.87;;;27.12;36.54
77013;BME280;67260;53.130;17.982;2023-04-25T06:52:08;100037.48;;;26.32;38.99
77013;BME280;67260;53.130;17.982;2023-04-25T06:54:37;100035.92;;;25.72;39.31
77013;BME280;67260;53.130;17.982;2023-04-25T06:57:32;100032.67;;;25.91;37.80
77013;BME280;67260;53.130;17.982;2023-04-25T07:00:19;100032.02;;;27.10;34.97
77013;BME280;67260;53.130;17.982;2023-04-25T07:02:47;100032.30;;;27.47;34.72
77013;BME280;67260;53.130;17.982;2023-04-25T07:05:17;100036.70;;;26.98;34.65
77013;BME280;67260;53.130;17.982;2023-04-25T07:07:44;100034.48;;;26.66;34.02
77013;BME280;67260;53.130;17.982;2023-04-25T07:10:10;100027.02;;;28.57;32.54
77013;BME280;67260;53.130;17.982;2023-04-25T07:12:36;100026.06;;;30.09;28.39
77013;BME280;67260;53.130;17.982;2023-04-25T07:15:03;100022.48;;;31.08;28.76
77013;BME280;67260;53.130;17.982;2023-04-25T07:17:37;100022.17;;;31.24;27.78
77013;BME280;67260;53.130;17.982;2023-04-25T07:20:04;100021.79;;;31.57;27.57
77013;BME280;67260;53.130;17.982;2023-04-25T07:22:32;100029.12;;;30.80;26.10
77013;BME280;67260;53.130;17.982;2023-04-25T07:24:58;100029.61;;;30.42;26.70
77013;BME280;67260;53.130;17.982;2023-04-25T07:27:24;100031.52;;;30.65;25.46
77013;BME280;67260;53.130;17.982;2023-04-25T07:29:58;100030.95;;;30.88;25.94
77013;BME280;67260;53.130;17.982;2023-04-25T07:32:25;100030.02;;;31.12;24.93
77013;BME280;67260;53.130;17.982;2023-04-25T07:34:51;100034.04;;;30.90;25.09
77013;BME280;67260;53.130;17.982;2023-04-25T07:37:18;100037.14;;;30.61;25.19
77013;BME280;67260;53.130;17.982;2023-04-25T07:39:57;100038.71;;;28.99;26.05
77013;BME280;67260;53.130;17.982;2023-04-25T07:42:23;100041.10;;;27.45;26.67
77013;BME280;67260;53.130;17.982;2023-04-25T07:44:49;100041.54;;;25.73;27.88
77013;BME280;67260;53.130;17.982;2023-04-25T07:47:16;100048.70;;;24.02;29.28
77013;BME280;67260;53.130;17.982;2023-04-25T07:49:42;100050.39;;;22.39;31.06
77013;BME280;67260;53.130;17.982;2023-04-25T07:52:10;100052.20;;;21.10;32.57
77013;BME280;67260;53.130;17.982;2023-04-25T07:54:37;100057.33;;;20.05;34.03
77013;BME280;67260;53.130;17.982;2023-04-25T07:57:21;100060.61;;;19.21;35.71
77013;BME280;67260;53.130;17.982;2023-04-25T07:59:52;100062.77;;;18.62;36.43
77013;BME280;67260;53.130;17.982;2023-04-25T08:02:25;100068.59;;;18.00;37.64
77013;BME280;67260;53.130;17.982;2023-04-25T08:04:59;100069.09;;;17.35;38.37
77013;BME280;67260;53.130;17.982;2023-04-25T08:07:31;100070.39;;;16.88;39.69
77013;BME280;67260;53.130;17.982;2023-04-25T08:10:00;100071.65;;;16.52;40.43
77013;BME280;67260;53.130;17.982;2023-04-25T08:12:29;100076.17;;;16.16;41.47
77013;BME280;67260;53.130;17.982;2023-04-25T08:14:57;100079.99;;;15.86;42.81
77013;BME280;67260;53.130;17.982;2023-04-25T08:17:25;100085.39;;;15.57;42.96
77013;BME280;67260;53.130;17.982;2023-04-25T08:19:52;100088.27;;;15.39;43.51
77013;BME280;67260;53.130;17.982;2023-04-25T08:22:32;100087.39;;;15.31;43.93
77013;BME280;67260;53.130;17.982;2023-04-25T08:25:17;100093.30;;;15.28;44.45
77013;BME280;67260;53.130;17.982;2023-04-25T08:27:43;100092.68;;;15.25;44.95
77013;BME280;67260;53.130;17.982;2023-04-25T08:30:10;100093.26;;;15.34;45.06
77013;BME280;67260;53.130;17.982;2023-04-25T08:32:39;100088.51;;;15.59;44.90
77013;BME280;67260;53.130;17.982;2023-04-25T08:35:28;100088.46;;;15.87;45.23
77013;BME280;67260;53.130;17.982;2023-04-25T08:37:56;100093.23;;;16.02;45.00
77013;BME280;67260;53.130;17.982;2023-04-25T08:40:27;100092.16;;;16.10;44.68
77013;BME280;67260;53.130;17.982;2023-04-25T08:43:03;100093.88;;;16.03;44.79
77013;BME280;67260;53.130;17.982;2023-04-25T08:45:39;100092.50;;;15.83;45.14
77013;BME280;67260;53.130;17.982;2023-04-25T08:48:37;100093.30;;;15.50;45.74
77013;BME280;67260;53.130;17.982;2023-04-25T08:51:07;100097.17;;;15.20;46.00
77013;BME280;67260;53.130;17.982;2023-04-25T08:53:35;100096.85;;;15.04;46.54
77013;BME280;67260;53.130;17.982;2023-04-25T08:56:06;100096.86;;;14.82;46.92
77013;BME280;67260;53.130;17.982;2023-04-25T08:58:36;100091.61;;;14.67;47.40
77013;BME280;67260;53.130;17.982;2023-04-25T09:01:05;100096.23;;;14.49;48.09
77013;BME280;67260;53.130;17.982;2023-04-25T09:03:40;100094.19;;;14.42;48.38
77013;BME280;67260;53.130;17.982;2023-04-25T09:06:07;100098.02;;;14.51;48.34
77013;BME280;67260;53.130;17.982;2023-04-25T09:08:37;100099.61;;;14.58;48.25
77013;BME280;67260;53.130;17.982;2023-04-25T09:11:09;100102.92;;;14.61;48.18
77013;BME280;67260;53.130;17.982;2023-04-25T09:14:12;100103.55;;;14.77;48.17
77013;BME280;67260;53.130;17.982;2023-04-25T09:17:05;100106.73;;;14.97;47.61
77013;BME280;67260;53.130;17.982;2023-04-25T09:19:54;100105.95;;;15.14;47.72
77013;BME280;67260;53.130;17.982;2023-04-25T09:22:25;100115.04;;;15.44;47.52
77013;BME280;67260;53.130;17.982;2023-04-25T09:24:52;100110.13;;;15.84;46.99
77013;BME280;67260;53.130;17.982;2023-04-25T09:27:23;100112.74;;;16.19;45.65
77013;BME280;67260;53.130;17.982;2023-04-25T09:29:58;100103.74;;;16.37;44.94
77013;BME280;67260;53.130;17.982;2023-04-25T09:32:27;100106.42;;;16.57;45.24
77013;BME280;67260;53.130;17.982;2023-04-25T09:35:00;100108.52;;;16.83;44.76
77013;BME280;67260;53.130;17.982;2023-04-25T09:37:36;100102.09;;;17.25;44.58
77013;BME280;67260;53.130;17.982;2023-04-25T09:40:24;100108.23;;;18.42;43.67
77013;BME280;67260;53.130;17.982;2023-04-25T09:42:57;100110.98;;;19.26;42.13
77013;BME280;67260;53.130;17.982;2023-04-25T09:45:43;100114.95;;;19.68;40.07
77013;BME280;67260;53.130;17.982;2023-04-25T09:48:19;100113.31;;;19.54;39.86
77013;BME280;67260;53.130;17.982;2023-04-25T09:51:13;100116.01;;;19.25;39.75
77013;BME280;67260;53.130;17.982;2023-04-25T09:53:50;100117.71;;;18.78;40.53
77013;BME280;67260;53.130;17.982;2023-04-25T09:56:38;100120.59;;;18.28;40.80
77013;BME280;67260;53.130;17.982;2023-04-25T09:59:07;100123.80;;;17.85;41.86
77013;BME280;67260;53.130;17.982;2023-04-25T10:01:53;100129.06;;;17.54;42.11
77013;BME280;67260;53.130;17.982;2023-04-25T10:04:35;100129.36;;;17.45;42.22
77013;BME280;67260;53.130;17.982;2023-04-25T10:07:23;100126.58;;;17.44;42.31
77013;BME280;67260;53.130;17.982;2023-04-25T10:09:59;100130.66;;;17.53;41.80
77013;BME280;67260;53.130;17.982;2023-04-25T10:12:35;100131.54;;;17.70;42.07
77013;BME280;67260;53.130;17.982;2023-04-25T10:15:08;100129.98;;;17.84;41.67
77013;BME280;67260;53.130;17.982;2023-04-25T10:17:38;100128.96;;;17.78;41.70
77013;BME280;67260;53.130;17.982;2023-04-25T10:20:07;100134.76;;;17.62;41.88
77013;BME280;67260;53.130;17.982;2023-04-25T10:22:44;100133.66;;;17.51;42.38
77013;BME280;67260;53.130;17.982;2023-04-25T10:25:14;100131.23;;;17.48;42.44
77013;BME280;67260;53.130;17.982;2023-04-25T10:27:44;100130.58;;;17.34;42.50
77013;BME280;67260;53.130;17.982;2023-04-25T10:30:18;100135.60;;;17.08;42.86
77013;BME280;67260;53.130;17.982;2023-04-25T10:32:51;100136.06;;;17.00;43.27
77013;BME280;67260;53.130;17.982;2023-04-25T10:35:28;100139.23;;;16.99;43.05
77013;BME280;67260;53.130;17.982;2023-04-25T10:38:16;100143.27;;;17.05;42.71
77013;BME280;67260;53.130;17.982;2023-04-25T10:41:14;100141.83;;;16.94;42.06
77013;BME280;67260;53.130;17.982;2023-04-25T10:43:49;100144.46;;;16.93;42.51
77013;BME280;67260;53.130;17.982;2023-04-25T10:46:25;100139.34;;;17.00;42.55
77013;BME280;67260;53.130;17.982;2023-04-25T10:48:54;100138.88;;;17.05;42.42
77013;BME280;67260;53.130;17.982;2023-04-25T10:51:26;100137.29;;;17.41;41.69
77013;BME280;67260;53.130;17.982;2023-04-25T10:54:06;100140.84;;;17.73;41.02
77013;BME280;67260;53.130;17.982;2023-04-25T10:59:14;100137.91;;;17.54;41.72
77013;BME280;67260;53.130;17.982;2023-04-25T11:01:43;100136.67;;;17.26;40.88
77013;BME280;67260;53.130;17.982;2023-04-25T11:07:13;100137.61;;;16.72;42.21
77013;BME280;67260;53.130;17.982;2023-04-25T11:09:45;100135.59;;;16.76;42.10
77013;BME280;67260;53.130;17.982;2023-04-25T11:12:11;100141.14;;;16.83;42.01
77013;BME280;67260;53.130;17.982;2023-04-25T11:14:38;100141.83;;;16.81;41.93
77013;BME280;67260;53.130;17.982;2023-04-25T11:17:05;100142.58;;;16.79;42.23
77013;BME280;67260;53.130;17.982;2023-04-25T11:19:34;100146.55;;;16.80;42.44
77013;BME280;67260;53.130;17.982;2023-04-25T11:22:02;100144.51;;;16.58;42.25
77013;BME280;67260;53.130;17.982;2023-04-25T11:24:33;100149.75;;;16.15;43.12
77013;BME280;67260;53.130;17.982;2023-04-25T11:27:05;100154.55;;;15.80;43.77
77013;BME280;67260;53.130;17.982;2023-04-25T11:29:33;100160.59;;;15.48;44.38
77013;BME280;67260;53.130;17.982;2023-04-25T11:32:00;100158.05;;;15.17;44.80
77013;BME280;67260;53.130;17.982;2023-04-25T11:34:29;100152.96;;;14.81;45.18
77013;BME280;67260;53.130;17.982;2023-04-25T11:36:57;100152.34;;;14.54;45.81
77013;BME280;67260;53.130;17.982;2023-04-25T11:39:26;100154.77;;;14.37;46.21
77013;BME280;67260;53.130;17.982;2023-04-25T11:42:00;100155.75;;;14.28;46.51
77013;BME280;67260;53.130;17.982;2023-04-25T11:44:28;100155.30;;;14.19;46.59
77013;BME280;67260;53.130;17.982;2023-04-25T11:46:55;100156.98;;;14.21;46.80
77013;BME280;67260;53.130;17.982;2023-04-25T11:49:22;100158.23;;;14.22;47.07
77013;BME280;67260;53.130;17.982;2023-04-25T11:51:53;100157.88;;;14.31;46.96
77013;BME280;67260;53.130;17.982;2023-04-25T11:54:22;100155.20;;;14.51;46.97
77013;BME280;67260;53.130;17.982;2023-04-25T11:56:49;100158.02;;;14.60;46.79
77013;BME280;67260;53.130;17.982;2023-04-25T11:59:15;100161.35;;;14.60;46.44
77013;BME280;67260;53.130;17.982;2023-04-25T12:01:48;100165.41;;;14.76;46.58
77013;BME280;67260;53.130;17.982;2023-04-25T12:04:17;100161.54;;;15.09;46.32
77013;BME280;67260;53.130;17.982;2023-04-25T12:06:55;100166.00;;;15.44;45.77
77013;BME280;67260;53.130;17.982;2023-04-25T12:09:31;100164.23;;;15.71;45.31
77013;BME280;67260;53.130;17.982;2023-04-25T12:12:00;100158.86;;;16.00;44.71
77013;BME280;67260;53.130;17.982;2023-04-25T12:14:34;100160.06;;;16.24;44.08
77013;BME280;67260;53.130;17.982;2023-04-25T12:17:03;100162.04;;;16.39;43.73
77013;BME280;67260;53.130;17.982;2023-04-25T12:19:33;100162.44;;;16.61;43.46
77013;BME280;67260;53.130;17.982;2023-04-25T12:22:03;100159.70;;;16.94;42.98
77013;BME280;67260;53.130;17.982;2023-04-25T12:24:33;100161.87;;;17.13;42.23
77013;BME280;67260;53.130;17.982;2023-04-25T12:27:05;100161.70;;;17.29;42.30
77013;BME280;67260;53.130;17.982;2023-04-25T12:29:32;100158.13;;;17.62;42.42
77013;BME280;67260;53.130;17.982;2023-04-25T12:31:59;100157.89;;;17.96;42.18
77013;BME280;67260;53.130;17.982;2023-04-25T12:34:28;100155.29;;;18.25;41.61
77013;BME280;67260;53.130;17.982;2023-04-25T12:36:54;100155.83;;;18.53;41.13
77013;BME280;67260;53.130;17.982;2023-04-25T12:39:24;100158.34;;;18.68;40.62
77013;BME280;67260;53.130;17.982;2023-04-25T12:41:53;100158.61;;;18.75;40.47
77013;BME280;67260;53.130;17.982;2023-04-25T12:44:20;100164.91;;;18.76;40.34
77013;BME280;67260;53.130;17.982;2023-04-25T12:46:47;100162.17;;;18.75;40.03
77013;BME280;67260;53.130;17.982;2023-04-25T12:49:13;100161.63;;;18.62;40.30
77013;BME280;67260;53.130;17.982;2023-04-25T12:51:40;100162.29;;;18.60;40.36
77013;BME280;67260;53.130;17.982;2023-04-25T12:54:07;100160.23;;;18.60;39.87
77013;BME280;67260;53.130;17.982;2023-04-25T12:56:34;100162.16;;;18.57;39.09
77013;BME280;67260;53.130;17.982;2023-04-25T12:59:02;100159.06;;;18.49;38.73
77013;BME280;67260;53.130;17.982;2023-04-25T13:01:28;100152.20;;;18.37;39.32
77013;BME280;67260;53.130;17.982;2023-04-25T13:03:55;100150.04;;;18.38;39.44
77013;BME280;67260;53.130;17.982;2023-04-25T13:06:22;100149.17;;;18.45;39.50
77013;BME280;67260;53.130;17.982;2023-04-25T13:08:48;100149.02;;;18.40;39.60
77013;BME280;67260;53.130;17.982;2023-04-25T13:11:14;100151.15;;;18.12;39.00
77013;BME280;67260;53.130;17.982;2023-04-25T13:13:41;100156.42;;;17.85;40.06